Time;durP1;ratioP1;P1;durP2;ratioP2;P2;SDS_P1;SDS_P2;PMS_P1;PMS_P2;Temp;Humidity;BMP_temperature;BMP_pressure;BME280_temperature;BME280_humidity;BME280_pressure;Samples;Min_cycle;Max_cycle;Signal;HPM_P1;HPM_P2
2024/04/21 00:00:22;;;;;;;;;;;5.50;94.40;;;;;;5489849;26;20279;-72
2024/04/21 00:02:48;;;;;;;;;;;5.40;92.50;;;;;;5489349;26;19996;-72
2024/04/21 00:05:13;;;;;;;;;;;5.40;92.30;;;;;;5489542;26;19960;-72
2024/04/21 00:07:39;;;;;;;;;;;5.40;92.70;;;;;;5489624;26;19968;-71
2024/04/21 00:10:04;;;;;;;;;;;5.40;95.40;;;;;;5489776;26;19928;-72
2024/04/21 00:12:30;;;;;;;;;;;5.40;94.70;;;;;;5489185;26;19928;-72
2024/04/21 00:14:55;;;;;;;;;;;5.30;96.20;;;;;;5489640;26;19935;-71
2024/04/21 00:17:21;;;;;;;;;;;5.30;96.90;;;;;;5489509;26;19928;-72
2024/04/21 00:19:46;;;;;;;;;;;5.30;98.40;;;;;;5489390;26;19975;-70
2024/04/21 00:22:12;;;;;;;;;;;5.30;99.60;;;;;;5489064;26;19955;-70
2024/04/21 00:24:37;;;;;;;;;;;5.20;99.40;;;;;;5489280;26;19997;-72
2024/04/21 00:27:03;;;;;;;;;;;5.20;99.90;;;;;;5489702;26;19928;-71
2024/04/21 00:29:28;;;;;;;;;;;5.20;97.80;;;;;;5488201;26;19936;-71
2024/04/21 00:31:54;;;;;;;;;;;5.20;98.30;;;;;;5488853;26;19996;-71
2024/04/21 00:34:19;;;;;;;;;;;5.20;99.90;;;;;;5489235;26;20325;-72
2024/04/21 00:36:45;;;;;;;;;;;5.20;99.90;;;;;;5489270;26;19935;-70
2024/04/21 00:39:10;;;;;;;;;;;5.20;99.90;;;;;;5489209;26;19936;-71
2024/04/21 00:41:35;;;;;;;;;;;5.20;99.90;;;;;;5488790;26;19928;-71
2024/04/21 00:44:01;;;;;;;;;;;5.10;99.90;;;;;;5489048;26;19928;-71
2024/04/21 00:46:27;;;;;;;;;;;5.10;99.90;;;;;;5489161;26;20370;-71
2024/04/21 00:48:54;;;;;;;;;;;5.10;99.90;;;;;;5489112;26;19927;-71
2024/04/21 00:51:20;;;;;;;;;;;5.00;99.90;;;;;;5488678;26;19928;-70
2024/04/21 00:53:46;;;;;;;;;;;5.00;99.90;;;;;;5488924;26;19928;-72
2024/04/21 00:56:12;;;;;;;;;;;5.10;99.90;;;;;;5489070;26;19928;-70
2024/04/21 00:58:38;;;;;;;;;;;5.00;99.90;;;;;;5488990;26;19934;-70
2024/04/21 01:01:04;;;;;;;;;;;5.10;99.90;;;;;;5488734;26;19928;-70
2024/04/21 01:03:29;;;;;;;;;;;5.00;99.90;;;;;;5488870;26;20487;-71
2024/04/21 01:05:55;;;;;;;;;;;4.90;99.90;;;;;;5488944;26;19984;-70
2024/04/21 01:08:20;;;;;;;;;;;4.90;99.90;;;;;;5488841;26;19935;-71
2024/04/21 01:10:46;;;;;;;;;;;4.60;99.90;;;;;;5488408;26;20271;-70
2024/04/21 01:13:11;;;;;;;;;;;4.50;99.90;;;;;;5488752;26;19928;-71
2024/04/21 01:15:37;;;;;;;;;;;4.50;99.90;;;;;;5488753;26;19927;-70
2024/04/21 01:18:04;;;;;;;;;;;4.40;99.90;;;;;;5488498;26;20244;-71
2024/04/21 01:20:31;;;;;;;;;;;4.50;99.90;;;;;;5488234;26;19999;-71
2024/04/21 01:22:56;;;;;;;;;;;4.50;99.90;;;;;;5488409;26;20364;-71
2024/04/21 01:25:22;;;;;;;;;;;4.50;99.90;;;;;;5488530;26;19935;-70
2024/04/21 01:27:47;;;;;;;;;;;4.60;99.90;;;;;;5488459;26;20280;-71
2024/04/21 01:30:12;;;;;;;;;;;4.60;99.90;;;;;;5488426;26;19934;-71
2024/04/21 01:32:39;;;;;;;;;;;4.70;99.90;;;;;;5487845;26;19944;-71
2024/04/21 01:35:05;;;;;;;;;;;4.70;99.90;;;;;;5488324;26;20341;-71
2024/04/21 01:37:30;;;;;;;;;;;4.70;99.90;;;;;;5488340;26;19932;-72
2024/04/21 01:39:56;;;;;;;;;;;4.70;99.90;;;;;;5488209;26;19928;-71
2024/04/21 01:42:22;;;;;;;;;;;4.60;99.90;;;;;;5487721;26;20073;-71
2024/04/21 01:44:47;;;;;;;;;;;4.70;99.90;;;;;;5488129;26;19938;-71
2024/04/21 01:47:12;;;;;;;;;;;4.60;99.90;;;;;;5488119;26;19927;-71
2024/04/21 01:49:38;;;;;;;;;;;4.60;99.90;;;;;;5488431;26;19936;-71
2024/04/21 01:52:04;;;;;;;;;;;4.70;99.90;;;;;;5487617;26;19927;-71
2024/04/21 01:54:29;;;;;;;;;;;4.70;99.90;;;;;;5487726;26;20006;-71
2024/04/21 01:56:54;;;;;;;;;;;4.70;99.90;;;;;;5487840;26;19965;-72
2024/04/21 01:59:21;;;;;;;;;;;4.60;99.90;;;;;;5488047;26;19983;-70
2024/04/21 02:01:46;;;;;;;;;;;4.60;99.90;;;;;;5487446;26;19956;-70
2024/04/21 02:04:12;;;;;;;;;;;4.60;99.90;;;;;;5487757;26;19935;-71
2024/04/21 02:06:38;;;;;;;;;;;4.60;99.90;;;;;;5487647;26;19928;-70
2024/04/21 02:09:03;;;;;;;;;;;4.60;99.90;;;;;;5487574;26;19996;-72
2024/04/21 02:11:28;;;;;;;;;;;4.50;99.90;;;;;;5487327;26;19928;-73
2024/04/21 02:13:54;;;;;;;;;;;4.50;99.90;;;;;;5487598;26;19996;-72
2024/04/21 02:16:19;;;;;;;;;;;4.50;99.90;;;;;;5487570;26;19928;-72
2024/04/21 02:18:45;;;;;;;;;;;4.50;99.90;;;;;;5487463;26;19932;-73
2024/04/21 02:21:10;;;;;;;;;;;4.40;99.90;;;;;;5487161;26;20000;-72
2024/04/21 02:23:36;;;;;;;;;;;4.30;99.90;;;;;;5487261;26;19939;-73
2024/04/21 02:26:01;;;;;;;;;;;4.20;99.90;;;;;;5487355;26;19928;-72
2024/04/21 02:28:27;;;;;;;;;;;4.10;99.90;;;;;;5487501;26;19935;-72
2024/04/21 02:30:53;;;;;;;;;;;4.10;99.90;;;;;;5486791;26;20253;-72
2024/04/21 02:33:19;;;;;;;;;;;4.10;99.90;;;;;;5487372;26;19928;-73
2024/04/21 02:35:45;;;;;;;;;;;4.20;99.90;;;;;;5487305;26;19935;-72
2024/04/21 02:38:11;;;;;;;;;;;4.20;99.90;;;;;;5487239;26;19927;-73
2024/04/21 02:40:37;;;;;;;;;;;4.20;99.90;;;;;;5486994;26;19935;-72
2024/04/21 02:43:03;;;;;;;;;;;4.20;99.90;;;;;;5487020;26;20271;-72
2024/04/21 02:45:29;;;;;;;;;;;4.10;99.90;;;;;;5487015;26;19928;-72
2024/04/21 02:47:54;;;;;;;;;;;4.20;99.90;;;;;;5487288;26;20599;-72
2024/04/21 02:50:20;;;;;;;;;;;4.20;99.90;;;;;;5486987;26;19952;-72
2024/04/21 02:52:45;;;;;;;;;;;4.20;99.90;;;;;;5489495;26;20036;-72
2024/04/21 02:55:11;;;;;;;;;;;4.20;99.90;;;;;;5490808;26;20279;-72
2024/04/21 02:57:36;;;;;;;;;;;4.20;99.90;;;;;;5490643;26;19935;-72
2024/04/21 03:00:02;;;;;;;;;;;4.20;99.90;;;;;;5490841;26;19935;-72
2024/04/21 03:02:28;;;;;;;;;;;4.20;99.90;;;;;;5490228;26;19927;-73
2024/04/21 03:04:53;;;;;;;;;;;4.10;99.90;;;;;;5490555;26;20008;-72
2024/04/21 03:07:19;;;;;;;;;;;4.00;99.90;;;;;;5486598;26;20000;-70
2024/04/21 03:09:44;;;;;;;;;;;4.00;99.90;;;;;;5454128;26;19928;-71
2024/04/21 03:12:10;;;;;;;;;;;4.00;99.90;;;;;;5453973;26;19932;-70
2024/04/21 03:14:35;;;;;;;;;;;4.00;99.90;;;;;;5454065;26;19928;-72
2024/04/21 03:17:02;;;;;;;;;;;4.00;99.90;;;;;;5454117;26;19929;-73
2024/04/21 03:19:28;;;;;;;;;;;3.90;99.90;;;;;;5454096;26;19936;-73
2024/04/21 03:21:53;;;;;;;;;;;3.90;99.90;;;;;;5453475;26;19956;-72
2024/04/21 03:24:19;;;;;;;;;;;3.90;99.90;;;;;;5471075;21;19961;-71
2024/04/21 03:26:44;;;;;;;;;;;3.80;99.90;;;;;;5417955;26;19936;-69
2024/04/21 03:29:10;;;;;;;;;;;3.80;99.90;;;;;;5418064;26;19936;-71
2024/04/21 03:31:35;;;;;;;;;;;3.70;99.90;;;;;;5417568;26;19937;-71
2024/04/21 03:34:01;;;;;;;;;;;3.70;99.90;;;;;;5417868;26;19936;-72
2024/04/21 03:36:26;;;;;;;;;;;3.60;99.90;;;;;;5417876;26;19929;-70
2024/04/21 03:38:51;;;;;;;;;;;3.60;99.90;;;;;;5417810;26;19937;-70
2024/04/21 03:41:17;;;;;;;;;;;3.50;99.90;;;;;;5417348;26;20389;-69
2024/04/21 03:43:43;;;;;;;;;;;3.60;99.90;;;;;;5417501;26;19929;-69
2024/04/21 03:46:09;;;;;;;;;;;3.60;99.90;;;;;;5417979;26;19936;-69
2024/04/21 03:48:35;;;;;;;;;;;3.60;99.90;;;;;;5417789;26;19936;-69
2024/04/21 03:51:01;;;;;;;;;;;3.70;99.90;;;;;;5417467;26;19929;-69
2024/04/21 03:53:26;;;;;;;;;;;3.70;99.90;;;;;;5417596;26;19929;-68
2024/04/21 03:55:52;;;;;;;;;;;3.60;99.90;;;;;;5417747;26;19965;-68
2024/04/21 03:58:17;;;;;;;;;;;3.70;99.90;;;;;;5417625;26;20368;-69
2024/04/21 04:00:43;;;;;;;;;;;3.70;99.90;;;;;;5417263;26;19936;-68
2024/04/21 04:03:08;;;;;;;;;;;3.70;99.90;;;;;;5416118;26;19998;-68
2024/04/21 04:05:34;;;;;;;;;;;3.60;99.90;;;;;;5417505;26;20002;-69
2024/04/21 04:08:00;;;;;;;;;;;3.60;99.90;;;;;;5417575;26;19935;-69
2024/04/21 04:10:25;;;;;;;;;;;3.70;99.90;;;;;;5417540;26;19961;-69
2024/04/21 04:12:51;;;;;;;;;;;3.70;99.90;;;;;;5417197;26;20292;-69
2024/04/21 04:15:16;;;;;;;;;;;3.70;99.90;;;;;;5417685;26;19929;-68
2024/04/21 04:17:42;;;;;;;;;;;3.80;99.90;;;;;;5417404;26;19939;-68
2024/04/21 04:20:09;;;;;;;;;;;3.80;99.90;;;;;;5417168;26;19929;-71
2024/04/21 04:22:35;;;;;;;;;;;3.80;99.90;;;;;;5417105;26;20014;-68
2024/04/21 04:25:01;;;;;;;;;;;3.80;99.90;;;;;;5417261;26;20369;-68
2024/04/21 04:27:26;;;;;;;;;;;3.80;99.90;;;;;;5417374;26;19931;-68
2024/04/21 04:29:52;;;;;;;;;;;3.90;99.90;;;;;;5417052;26;19929;-68
2024/04/21 04:32:18;;;;;;;;;;;4.00;99.90;;;;;;5416773;26;19929;-71
2024/04/21 04:34:43;;;;;;;;;;;4.00;99.90;;;;;;5417259;26;19935;-68
2024/04/21 04:37:09;;;;;;;;;;;4.00;99.90;;;;;;5417010;26;20364;-69
2024/04/21 04:39:35;;;;;;;;;;;4.10;99.90;;;;;;5416921;26;19929;-69
2024/04/21 04:42:00;;;;;;;;;;;4.10;99.90;;;;;;5416419;26;19998;-69
2024/04/21 04:44:26;;;;;;;;;;;4.20;99.90;;;;;;5416739;26;19997;-69
2024/04/21 04:46:51;;;;;;;;;;;4.20;99.90;;;;;;5416849;26;19961;-69
2024/04/21 04:49:16;;;;;;;;;;;4.20;99.90;;;;;;5416724;26;19933;-69
2024/04/21 04:51:42;;;;;;;;;;;4.20;99.90;;;;;;5416281;26;19937;-70
2024/04/21 04:54:07;;;;;;;;;;;4.20;99.90;;;;;;5416669;26;19936;-69
2024/04/21 04:56:33;;;;;;;;;;;4.20;99.90;;;;;;5416779;26;19929;-68
2024/04/21 04:58:58;;;;;;;;;;;4.20;99.90;;;;;;5416692;26;19936;-68
2024/04/21 05:01:24;;;;;;;;;;;4.30;99.90;;;;;;5416549;26;19933;-69
2024/04/21 05:03:49;;;;;;;;;;;4.30;99.90;;;;;;5416510;26;19948;-70
2024/04/21 05:06:15;;;;;;;;;;;4.40;99.90;;;;;;5416524;26;20364;-69
2024/04/21 05:08:40;;;;;;;;;;;4.40;99.90;;;;;;5416599;26;20368;-70
2024/04/21 05:11:06;;;;;;;;;;;4.40;99.90;;;;;;5416100;26;20014;-70
2024/04/21 05:13:31;;;;;;;;;;;4.40;99.90;;;;;;5416395;26;19936;-69
2024/04/21 05:15:57;;;;;;;;;;;4.50;99.90;;;;;;5416103;26;19936;-69
2024/04/21 05:18:22;;;;;;;;;;;4.40;99.90;;;;;;5416748;26;19998;-69
2024/04/21 05:20:48;;;;;;;;;;;4.50;99.90;;;;;;5416105;26;20259;-68
2024/04/21 05:23:13;;;;;;;;;;;4.40;99.90;;;;;;5416246;26;20795;-68
2024/04/21 05:25:39;;;;;;;;;;;4.50;99.90;;;;;;5416434;26;19936;-68
2024/04/21 05:28:05;;;;;;;;;;;4.60;99.90;;;;;;5416411;26;19997;-69
2024/04/21 05:30:30;;;;;;;;;;;4.60;99.90;;;;;;5415854;26;20268;-70
2024/04/21 05:32:56;;;;;;;;;;;4.60;99.90;;;;;;5416165;26;19936;-69
2024/04/21 05:35:21;;;;;;;;;;;4.70;99.90;;;;;;5416101;26;19929;-69
2024/04/21 05:37:46;;;;;;;;;;;4.70;99.90;;;;;;5416081;26;19961;-70
2024/04/21 05:40:12;;;;;;;;;;;4.70;99.90;;;;;;5416397;26;20356;-69
2024/04/21 05:42:38;;;;;;;;;;;4.70;99.90;;;;;;5415525;26;19929;-69
2024/04/21 05:45:04;;;;;;;;;;;4.80;99.90;;;;;;5415918;26;19936;-69
2024/04/21 05:47:29;;;;;;;;;;;4.70;99.90;;;;;;5415783;26;20008;-70
2024/04/21 05:49:54;;;;;;;;;;;4.60;99.90;;;;;;5415880;26;19935;-70
2024/04/21 05:52:20;;;;;;;;;;;4.60;99.90;;;;;;5415457;26;19929;-70
2024/04/21 05:54:45;;;;;;;;;;;4.50;99.90;;;;;;5415870;26;19952;-70
2024/04/21 05:57:11;;;;;;;;;;;4.60;99.90;;;;;;5415607;26;20027;-70
2024/04/21 05:59:36;;;;;;;;;;;4.50;99.90;;;;;;5415723;26;19933;-70
2024/04/21 06:02:02;;;;;;;;;;;4.60;99.90;;;;;;5415556;26;19936;-71
2024/04/21 06:04:30;;;;;;;;;;;4.60;99.90;;;;;;5415518;26;20342;-71
2024/04/21 06:06:56;;;;;;;;;;;4.60;99.90;;;;;;5415726;26;19929;-71
2024/04/21 06:09:22;;;;;;;;;;;4.60;99.90;;;;;;5415757;26;19939;-71
2024/04/21 06:11:47;;;;;;;;;;;4.60;99.90;;;;;;5414978;26;20007;-71
2024/04/21 06:14:13;;;;;;;;;;;4.50;99.90;;;;;;5415569;26;20363;-71
2024/04/21 06:16:38;;;;;;;;;;;4.60;99.90;;;;;;5415537;26;19940;-71
2024/04/21 06:19:04;;;;;;;;;;;4.50;99.90;;;;;;5413618;26;19929;-71
2024/04/21 06:21:29;;;;;;;;;;;4.50;99.90;;;;;;5415043;26;19936;-71
2024/04/21 06:23:55;;;;;;;;;;;4.60;99.90;;;;;;5415632;26;19936;-68
2024/04/21 06:26:21;;;;;;;;;;;4.70;99.90;;;;;;5416484;26;19933;-68
2024/04/21 06:28:47;;;;;;;;;;;4.70;99.90;;;;;;5418986;26;19929;-68
2024/04/21 06:31:12;;;;;;;;;;;4.60;99.90;;;;;;5418609;26;20261;-68
2024/04/21 06:33:38;;;;;;;;;;;4.70;99.90;;;;;;5418547;26;19997;-70
2024/04/21 06:36:03;;;;;;;;;;;4.70;99.90;;;;;;5418954;26;19929;-70
2024/04/21 06:38:30;;;;;;;;;;;4.70;99.90;;;;;;5418778;26;19935;-69
2024/04/21 06:40:56;;;;;;;;;;;4.70;99.90;;;;;;5418202;26;19937;-69
2024/04/21 06:43:22;;;;;;;;;;;4.60;99.90;;;;;;5427220;26;19969;-70
2024/04/21 06:45:47;;;;;;;;;;;4.60;99.90;;;;;;5454616;26;19928;-69
2024/04/21 06:48:13;;;;;;;;;;;4.60;99.90;;;;;;5454374;26;20345;-69
2024/04/21 06:50:38;;;;;;;;;;;4.60;99.90;;;;;;5453994;26;19956;-69
2024/04/21 06:53:04;;;;;;;;;;;4.70;99.90;;;;;;5438875;26;19938;-69
2024/04/21 06:55:30;;;;;;;;;;;4.80;99.90;;;;;;5382915;26;20261;-70
2024/04/21 06:57:56;;;;;;;;;;;5.00;99.90;;;;;;5382983;26;19930;-70
2024/04/21 07:00:22;;;;;;;;;;;5.00;98.60;;;;;;5382701;26;20431;-70
2024/04/21 07:02:47;;;;;;;;;;;5.00;96.40;;;;;;5382415;26;19941;-70
2024/04/21 07:05:13;;;;;;;;;;;5.10;97.60;;;;;;5382760;26;20365;-70
2024/04/21 07:07:38;;;;;;;;;;;5.00;97.60;;;;;;5381005;26;19929;-70
2024/04/21 07:10:04;;;;;;;;;;;5.10;99.20;;;;;;5379614;26;19929;-70
2024/04/21 07:12:29;;;;;;;;;;;5.20;99.90;;;;;;5380170;26;19929;-70
2024/04/21 07:14:55;;;;;;;;;;;5.30;94.70;;;;;;5382690;26;19937;-70
2024/04/21 07:17:20;;;;;;;;;;;5.30;97.90;;;;;;5382508;26;19929;-70
2024/04/21 07:19:46;;;;;;;;;;;5.40;99.90;;;;;;5381951;26;19937;-70
2024/04/21 07:22:12;;;;;;;;;;;5.50;99.20;;;;;;5382153;26;19936;-70
2024/04/21 07:24:37;;;;;;;;;;;5.60;93.80;;;;;;5382337;26;19962;-70
2024/04/21 07:27:03;;;;;;;;;;;5.70;91.60;;;;;;5380945;26;19975;-70
2024/04/21 07:29:28;;;;;;;;;;;5.90;80.40;;;;;;5378278;26;19930;-70
2024/04/21 07:31:54;;;;;;;;;;;6.00;72.40;;;;;;5379296;26;20001;-70
2024/04/21 07:34:20;;;;;;;;;;;5.90;63.60;;;;;;5381603;26;19936;-68
2024/04/21 07:36:45;;;;;;;;;;;6.00;70.30;;;;;;5382333;26;20280;-68
2024/04/21 07:39:11;;;;;;;;;;;6.10;72.90;;;;;;5382563;26;19938;-70
2024/04/21 07:41:38;;;;;;;;;;;6.30;72.30;;;;;;5382306;26;19929;-68
2024/04/21 07:44:03;;;;;;;;;;;6.40;58.90;;;;;;5382569;26;19930;-68
2024/04/21 07:46:30;;;;;;;;;;;6.50;52.40;;;;;;5382370;26;20002;-71
2024/04/21 07:48:55;;;;;;;;;;;6.60;52.40;;;;;;5382296;26;19929;-69
2024/04/21 07:51:21;;;;;;;;;;;6.60;45.80;;;;;;5379288;26;19998;-71
2024/04/21 07:53:46;;;;;;;;;;;6.70;47.30;;;;;;5380389;26;19969;-71
2024/04/21 07:56:12;;;;;;;;;;;6.70;42.30;;;;;;5380387;26;19940;-71
2024/04/21 07:58:37;;;;;;;;;;;6.60;43.10;;;;;;5378303;26;19941;-70
2024/04/21 08:01:06;;;;;;;;;;;6.60;52.10;;;;;;5379710;26;20357;-72
2024/04/21 08:03:32;;;;;;;;;;;6.70;54.40;;;;;;5381046;26;19929;-70
2024/04/21 08:05:58;;;;;;;;;;;6.80;45.10;;;;;;5380945;26;20373;-70
2024/04/21 08:08:23;;;;;;;;;;;6.80;36.80;;;;;;5379013;26;19933;-70
2024/04/21 08:10:59;;;;;;;;;;;6.90;34.20;;;;;;5396002;26;19998;-70
2024/04/21 08:13:24;;;;;;;;;;;7.00;30.40;;;;;;5380613;26;19936;-70
2024/04/21 08:15:50;;;;;;;;;;;7.20;26.30;;;;;;5381360;26;19929;-71
2024/04/21 08:18:16;;;;;;;;;;;7.30;20.90;;;;;;5380054;26;19957;-71
2024/04/21 08:20:43;;;;;;;;;;;7.50;23.50;;;;;;5381722;26;20331;-69
2024/04/21 08:23:08;;;;;;;;;;;7.60;18.70;;;;;;5388229;26;19936;-68
2024/04/21 08:25:34;;;;;;;;;;;7.80;14.80;;;;;;5379414;26;20277;-70
2024/04/21 08:27:59;;;;;;;;;;;7.80;9.70;;;;;;5380445;26;19999;-70
2024/04/21 08:30:25;;;;;;;;;;;7.70;3.50;;;;;;5379822;26;19936;-70
2024/04/21 08:32:50;;;;;;;;;;;7.80;7.10;;;;;;5379939;26;19957;-71
2024/04/21 08:35:16;;;;;;;;;;;7.80;6.30;;;;;;5380876;26;19929;-71
2024/04/21 08:37:41;;;;;;;;;;;7.80;6.00;;;;;;5380987;26;19998;-72
2024/04/21 08:40:07;;;;;;;;;;;7.70;2.80;;;;;;5380858;26;20284;-72
2024/04/21 08:42:35;;;;;;;;;;;7.70;1.00;;;;;;5381227;26;20388;-71
2024/04/21 08:45:01;;;;;;;;;;;7.60;1.00;;;;;;5389857;26;20388;-70
2024/04/21 08:47:28;;;;;;;;;;;7.50;1.00;;;;;;5380504;26;20002;-69
2024/04/21 08:49:55;;;;;;;;;;;7.50;1.70;;;;;;5378796;26;19933;-68
2024/04/21 08:52:21;;;;;;;;;;;7.40;3.30;;;;;;5379132;26;20270;-69
2024/04/21 08:54:47;;;;;;;;;;;7.40;4.40;;;;;;5396053;26;20030;-66
2024/04/21 08:57:14;;;;;;;;;;;7.50;8.00;;;;;;5415131;26;19945;-70
2024/04/21 08:59:41;;;;;;;;;;;7.40;5.60;;;;;;5414671;26;20052;-67
2024/04/21 09:02:09;;;;;;;;;;;7.20;6.10;;;;;;5413097;26;20364;-69
2024/04/21 09:04:34;;;;;;;;;;;7.20;5.60;;;;;;5414899;26;20376;-68
2024/04/21 09:07:01;;;;;;;;;;;7.00;3.50;;;;;;5412085;26;19929;-69
2024/04/21 09:09:26;;;;;;;;;;;7.00;5.30;;;;;;5414619;26;19936;-69
2024/04/21 09:11:51;;;;;;;;;;;7.00;3.30;;;;;;5414192;26;19953;-68
2024/04/21 09:14:17;;;;;;;;;;;6.90;6.70;;;;;;5413879;26;20396;-69
2024/04/21 09:16:42;;;;;;;;;;;7.10;10.30;;;;;;5414917;26;20055;-68
2024/04/21 09:19:08;;;;;;;;;;;7.30;8.20;;;;;;5414515;26;19929;-69
2024/04/21 09:21:33;;;;;;;;;;;7.60;4.60;;;;;;5414168;26;19933;-70
2024/04/21 09:23:59;;;;;;;;;;;7.60;1.00;;;;;;5414602;26;19937;-68
2024/04/21 09:26:24;;;;;;;;;;;7.70;1.00;;;;;;5414245;26;19998;-69
2024/04/21 09:28:50;;;;;;;;;;;7.70;1.00;;;;;;5414396;26;19929;-68
2024/04/21 09:31:15;;;;;;;;;;;7.80;1.00;;;;;;5414891;26;19998;-69
2024/04/21 09:33:41;;;;;;;;;;;8.00;1.00;;;;;;5414649;26;19966;-71
2024/04/21 09:36:06;;;;;;;;;;;8.20;1.00;;;;;;5413870;26;19929;-73
2024/04/21 09:38:33;;;;;;;;;;;8.50;1.00;;;;;;5415892;26;19929;-73
2024/04/21 09:40:59;;;;;;;;;;;8.70;1.00;;;;;;5415221;26;20002;-70
2024/04/21 09:43:27;;;;;;;;;;;8.90;1.00;;;;;;5415607;26;19937;-71
2024/04/21 09:45:53;;;;;;;;;;;9.00;1.00;;;;;;5415961;26;19936;-70
2024/04/21 09:48:20;;;;;;;;;;;9.30;1.00;;;;;;5414454;26;19936;-70
2024/04/21 09:50:45;;;;;;;;;;;9.60;1.00;;;;;;5418475;26;19941;-69
2024/04/21 09:53:11;;;;;;;;;;;9.60;1.00;;;;;;5413455;26;19929;-68
2024/04/21 09:55:37;;;;;;;;;;;9.60;1.00;;;;;;5408543;26;19929;-68
2024/04/21 09:58:03;;;;;;;;;;;9.70;1.00;;;;;;5412519;26;20357;-68
2024/04/21 10:00:30;;;;;;;;;;;9.80;1.00;;;;;;5427491;26;19936;-71
2024/04/21 10:02:57;;;;;;;;;;;9.70;1.00;;;;;;5417090;26;19936;-69
2024/04/21 10:05:24;;;;;;;;;;;9.60;1.00;;;;;;5417373;26;20293;-70
2024/04/21 10:07:50;;;;;;;;;;;9.50;1.00;;;;;;5425135;26;19964;-69
2024/04/21 10:10:21;;;;;;;;;;;9.60;1.00;;;;;;5422076;26;19937;-69
2024/04/21 10:12:47;;;;;;;;;;;10.10;1.00;;;;;;5417818;26;19940;-69
2024/04/21 10:15:15;;;;;;;;;;;10.20;1.00;;;;;;5419989;26;19960;-70
2024/04/21 10:17:40;;;;;;;;;;;10.00;1.00;;;;;;5417926;26;19936;-71
2024/04/21 10:20:09;;;;;;;;;;;9.90;1.00;;;;;;5417012;26;19929;-70
2024/04/21 10:22:36;;;;;;;;;;;9.90;1.00;;;;;;5416549;26;20065;-70
2024/04/21 10:25:02;;;;;;;;;;;10.00;1.00;;;;;;5413447;26;19953;-68
2024/04/21 10:27:27;;;;;;;;;;;10.00;1.00;;;;;;5421270;26;19929;-68
2024/04/21 10:29:53;;;;;;;;;;;9.90;1.00;;;;;;5452994;26;20415;-68
2024/04/21 10:32:25;;;;;;;;;;;10.00;1.00;;;;;;5452151;26;19935;-70
2024/04/21 10:34:50;;;;;;;;;;;10.00;1.00;;;;;;5452420;26;19944;-70
2024/04/21 10:37:26;;;;;;;;;;;9.80;1.00;;;;;;5453427;26;19939;-68
2024/04/21 10:39:58;;;;;;;;;;;10.10;1.00;;;;;;5441893;26;20275;-67
2024/04/21 10:42:23;;;;;;;;;;;10.30;1.00;;;;;;5416458;26;20336;-70
2024/04/21 10:44:49;;;;;;;;;;;10.60;1.00;;;;;;5416788;26;19929;-69
2024/04/21 10:47:15;;;;;;;;;;;10.90;1.00;;;;;;5416150;26;19936;-69
2024/04/21 10:49:41;;;;;;;;;;;11.30;1.00;;;;;;5417305;26;19944;-68
2024/04/21 10:52:07;;;;;;;;;;;11.60;1.00;;;;;;5416362;26;20006;-70
2024/04/21 10:54:32;;;;;;;;;;;12.00;1.00;;;;;;5416690;26;20275;-68
2024/04/21 10:57:01;;;;;;;;;;;11.80;1.00;;;;;;5417729;26;20002;-68
2024/04/21 10:59:26;;;;;;;;;;;11.80;1.00;;;;;;5412286;26;19972;-68
2024/04/21 11:01:52;;;;;;;;;;;11.90;1.00;;;;;;5404434;26;20011;-68
2024/04/21 11:04:17;;;;;;;;;;;12.20;1.00;;;;;;5411146;26;19936;-69
2024/04/21 11:06:43;;;;;;;;;;;12.50;1.00;;;;;;5415913;26;19929;-71
2024/04/21 11:09:10;;;;;;;;;;;12.70;1.00;;;;;;5416752;26;19929;-68
2024/04/21 11:11:35;;;;;;;;;;;13.00;1.00;;;;;;5416400;26;19935;-70
2024/04/21 11:14:01;;;;;;;;;;;12.80;1.00;;;;;;5417486;26;20307;-70
2024/04/21 11:16:30;;;;;;;;;;;12.70;1.00;;;;;;5416539;26;19940;-71
2024/04/21 11:18:56;;;;;;;;;;;12.50;1.00;;;;;;5415921;26;19950;-70
2024/04/21 11:21:21;;;;;;;;;;;12.40;1.00;;;;;;5408140;26;19929;-70
2024/04/21 11:23:47;;;;;;;;;;;12.30;1.00;;;;;;5415646;26;19937;-71
2024/04/21 11:26:13;;;;;;;;;;;12.20;1.00;;;;;;5415918;26;19929;-68
2024/04/21 11:28:39;;;;;;;;;;;12.00;1.00;;;;;;5415975;26;20006;-68
2024/04/21 11:31:05;;;;;;;;;;;11.90;1.00;;;;;;5416694;26;19929;-69
2024/04/21 11:33:31;;;;;;;;;;;11.80;1.00;;;;;;5417085;26;19976;-69
2024/04/21 11:35:57;;;;;;;;;;;11.80;1.00;;;;;;5416811;26;19936;-69
2024/04/21 11:38:24;;;;;;;;;;;12.00;1.00;;;;;;5416442;26;19998;-69
2024/04/21 11:40:50;;;;;;;;;;;12.00;1.00;;;;;;5416772;26;20411;-69
2024/04/21 11:43:17;;;;;;;;;;;11.80;1.00;;;;;;5417061;26;19933;-69
2024/04/21 11:45:43;;;;;;;;;;;11.70;1.00;;;;;;5415605;26;19929;-69
2024/04/21 11:48:08;;;;;;;;;;;11.40;1.00;;;;;;5416963;26;20375;-69
2024/04/21 11:50:37;;;;;;;;;;;11.30;1.00;;;;;;5416790;26;19998;-68
2024/04/21 11:53:06;;;;;;;;;;;11.40;1.00;;;;;;5417017;26;19929;-68
2024/04/21 11:55:31;;;;;;;;;;;12.20;1.00;;;;;;5415928;26;19994;-68
2024/04/21 11:57:57;;;;;;;;;;;12.90;1.00;;;;;;5414982;26;19941;-68
2024/04/21 12:00:25;;;;;;;;;;;12.80;1.00;;;;;;5417083;26;19997;-69
2024/04/21 12:02:51;;;;;;;;;;;12.90;1.00;;;;;;5416475;26;19941;-68
2024/04/21 12:05:16;;;;;;;;;;;12.90;1.00;;;;;;5416995;26;19935;-68
2024/04/21 12:07:42;;;;;;;;;;;13.40;1.00;;;;;;5428887;26;19975;-69
2024/04/21 12:10:07;;;;;;;;;;;14.10;1.00;;;;;;5416870;26;19929;-71
2024/04/21 12:12:33;;;;;;;;;;;15.00;1.00;;;;;;5416204;26;19933;-71
2024/04/21 12:14:58;;;;;;;;;;;15.40;1.00;;;;;;5416809;26;19944;-71
2024/04/21 12:17:24;;;;;;;;;;;15.30;1.00;;;;;;5416804;26;20373;-70
2024/04/21 12:19:50;;;;;;;;;;;15.20;1.00;;;;;;5416701;26;20449;-71
2024/04/21 12:22:16;;;;;;;;;;;15.10;1.00;;;;;;5416393;26;19932;-71
2024/04/21 12:24:41;;;;;;;;;;;14.50;1.00;;;;;;5415074;26;19929;-71
2024/04/21 12:27:07;;;;;;;;;;;14.00;1.00;;;;;;5416503;26;19936;-70
2024/04/21 12:29:33;;;;;;;;;;;13.60;1.00;;;;;;5414837;26;19929;-70
2024/04/21 12:31:58;;;;;;;;;;;13.30;1.00;;;;;;5416293;26;20253;-71
2024/04/21 12:34:24;;;;;;;;;;;13.00;1.00;;;;;;5416119;26;19944;-70
2024/04/21 12:36:49;;;;;;;;;;;13.20;1.00;;;;;;5416784;26;19941;-70
2024/04/21 12:39:15;;;;;;;;;;;14.30;1.00;;;;;;5416395;26;19936;-71
2024/04/21 12:41:40;;;;;;;;;;;15.50;1.00;;;;;;5415832;26;19944;-70
2024/04/21 12:44:06;;;;;;;;;;;16.70;1.00;;;;;;5416509;26;19941;-71
2024/04/21 12:46:32;;;;;;;;;;;17.70;1.00;;;;;;5416646;26;19937;-71
2024/04/21 12:48:58;;;;;;;;;;;18.20;1.00;;;;;;5416219;26;19998;-70
2024/04/21 12:51:23;;;;;;;;;;;18.30;1.00;;;;;;5415964;26;19929;-71
2024/04/21 12:53:49;;;;;;;;;;;17.70;1.00;;;;;;5416241;26;20275;-71
2024/04/21 12:56:14;;;;;;;;;;;16.80;1.00;;;;;;5416483;26;19937;-71
2024/04/21 12:58:40;;;;;;;;;;;15.30;1.00;;;;;;5416211;26;20272;-71
2024/04/21 13:01:05;;;;;;;;;;;15.10;1.00;;;;;;5416261;26;20376;-71
2024/04/21 13:03:31;;;;;;;;;;;15.40;1.00;;;;;;5416120;26;19929;-69
2024/04/21 13:05:56;;;;;;;;;;;16.00;1.00;;;;;;5416804;26;20022;-71
2024/04/21 13:08:22;;;;;;;;;;;16.50;1.00;;;;;;5416564;26;20023;-71
2024/04/21 13:10:47;;;;;;;;;;;17.00;1.00;;;;;;5415874;26;19940;-70
2024/04/21 13:13:13;;;;;;;;;;;17.70;1.00;;;;;;5416618;26;19937;-71
2024/04/21 13:15:38;;;;;;;;;;;17.70;1.00;;;;;;5416391;26;19928;-71
2024/04/21 13:18:04;;;;;;;;;;;17.70;1.00;;;;;;5416062;26;19928;-71
2024/04/21 13:20:30;;;;;;;;;;;18.00;1.00;;;;;;5416478;26;19979;-70
2024/04/21 13:22:58;;;;;;;;;;;18.60;1.00;;;;;;5416009;26;20016;-71
2024/04/21 13:25:24;;;;;;;;;;;18.70;1.00;;;;;;5416139;26;19943;-69
2024/04/21 13:27:49;;;;;;;;;;;17.90;1.00;;;;;;5416631;26;19929;-70
2024/04/21 13:30:15;;;;;;;;;;;17.00;1.00;;;;;;5416365;26;19937;-71
2024/04/21 13:32:41;;;;;;;;;;;17.10;1.00;;;;;;5414791;26;19929;-70
2024/04/21 13:35:06;;;;;;;;;;;16.90;1.00;;;;;;5415521;26;19936;-70
2024/04/21 13:37:34;;;;;;;;;;;16.00;1.00;;;;;;5415550;26;19937;-70
2024/04/21 13:40:00;;;;;;;;;;;15.20;1.00;;;;;;5415131;26;19936;-70
2024/04/21 13:42:25;;;;;;;;;;;14.70;1.00;;;;;;5415208;26;19929;-71
2024/04/21 13:44:51;;;;;;;;;;;14.40;1.00;;;;;;5415712;26;20601;-70
2024/04/21 13:47:16;;;;;;;;;;;13.80;1.00;;;;;;5415950;26;19929;-71
2024/04/21 13:49:42;;;;;;;;;;;13.20;1.00;;;;;;5415730;26;20288;-70
2024/04/21 13:52:07;;;;;;;;;;;11.90;1.00;;;;;;5415033;26;19935;-70
2024/04/21 13:54:34;;;;;;;;;;;11.20;1.00;;;;;;5415477;26;20288;-70
2024/04/21 13:57:00;;;;;;;;;;;11.80;1.00;;;;;;5415677;26;20005;-71
2024/04/21 13:59:25;;;;;;;;;;;12.90;1.00;;;;;;5415573;26;19929;-71
2024/04/21 14:01:51;;;;;;;;;;;13.90;1.00;;;;;;5397893;26;19936;-70
2024/04/21 14:04:16;;;;;;;;;;;15.00;1.00;;;;;;5408704;26;19941;-70
2024/04/21 14:06:42;;;;;;;;;;;16.30;1.00;;;;;;5416286;26;19929;-71
2024/04/21 14:09:08;;;;;;;;;;;17.30;1.00;;;;;;5415496;26;20516;-71
2024/04/21 14:11:34;;;;;;;;;;;18.10;1.00;;;;;;5415344;26;19932;-71
2024/04/21 14:13:59;;;;;;;;;;;18.30;1.00;;;;;;5414002;26;19933;-71
2024/04/21 14:16:26;;;;;;;;;;;17.70;1.00;;;;;;5415185;26;19936;-70
2024/04/21 14:18:51;;;;;;;;;;;17.60;1.00;;;;;;5415896;26;19929;-70
2024/04/21 14:21:17;;;;;;;;;;;16.80;1.00;;;;;;5414738;26;19935;-70